Time Latitude Longitude Accuracy (66% radius in meters) Altitude (meters) Speed (km/hour) Bearing (degrees) Battery (%) GPS flag
07:03:19 57.203940 60.118353 0 0 0 0 1 delete
07:03:18 57.203940 60.118353 0 0 0 0 1 delete
07:03:17 57.203938 60.118355 0 0 0 0 1 delete
07:03:16 57.203937 60.118355 0 0 0 0 1 delete
07:03:15 57.203935 60.118355 0 0 0 0 1 delete
07:03:14 57.203933 60.118353 0 0 0 0 1 delete
07:03:13 57.203932 60.118352 0 0 0 0 1 delete
07:03:12 57.203933 60.118338 0 0 0 0 1 delete
07:03:11 57.203932 60.118325 0 0 0 0 1 delete
07:03:10 57.203932 60.118310 0 0 0 0 1 delete
07:03:09 57.203932 60.118290 0 0 0 0 1 delete
07:03:08 57.203932 60.118267 0 0 0 0 1 delete
07:03:07 57.203937 60.118247 0 0 0 0 1 delete
07:03:06 57.203940 60.118237 0 0 0 0 1 delete
07:03:05 57.203945 60.118225 0 0 0 0 1 delete
07:03:04 57.203953 60.118210 0 0 0 0 1 delete
07:03:03 57.203955 60.118197 0 0 0 0 1 delete
07:03:02 57.203965 60.118185 0 0 0 0 1 delete
07:03:01 57.203983 60.118158 0 0 0 0 1 delete
07:03:00 57.204002 60.118113 0 0 0 0 1 delete
07:02:59 57.204023 60.118075 0 0 0 0 1 delete
07:02:58 57.204048 60.118028 0 0 0 0 1 delete
07:02:57 57.204072 60.117995 0 0 0 0 1 delete
07:02:56 57.204090 60.117953 0 0 0 0 1 delete
07:02:55 57.204117 60.117920 0 0 0 0 1 delete
07:02:54 57.204148 60.117887 0 0 0 0 1 delete
07:02:53 57.204175 60.117842 0 0 0 0 1 delete
07:02:52 57.204207 60.117795 0 0 0 0 1 delete
07:02:51 57.204238 60.117753 0 0 0 0 1 delete
07:02:50 57.204268 60.117710 0 0 0 0 1 delete
07:02:49 57.204302 60.117657 0 0 0 0 1 delete
07:02:48 57.204330 60.117612 0 0 0 0 1 delete
07:02:47 57.204368 60.117580 0 0 0 0 1 delete
07:02:46 57.204412 60.117545 0 0 0 0 1 delete
07:02:45 57.204458 60.117517 0 0 0 0 1 delete
07:02:44 57.204502 60.117483 0 0 0 0 1 delete
07:02:43 57.204543 60.117458 0 0 0 0 1 delete
07:02:42 57.204587 60.117448 0 0 0 0 1 delete
07:02:41 57.204633 60.117432 0 0 0 0 1 delete
07:02:40 57.204675 60.117427 0 0 0 0 1 delete
07:02:39 57.204713 60.117432 0 0 0 0 1 delete
07:02:38 57.204755 60.117450 0 0 0 0 1 delete
07:02:37 57.204800 60.117468 0 0 0 0 1 delete
07:02:36 57.204845 60.117493 0 0 0 0 1 delete
07:02:35 57.204892 60.117503 0 0 0 0 1 delete
07:02:34 57.204938 60.117508 0 0 0 0 1 delete
07:02:33 57.204982 60.117523 0 0 0 0 1 delete
07:02:32 57.205020 60.117543 0 0 0 0 1 delete
07:02:31 57.205052 60.117553 0 0 0 0 1 delete
07:02:30 57.205080 60.117562 0 0 0 0 1 delete